sensor_id;sensor_type;location;lat;lon;timestamp;pressure;altitude;pressure_sealevel;temperature;humidity
39405;BME280;25121;51.090;17.038;2023-04-19T00:01:09;100600.03;;;12.51;64.46
39405;BME280;25121;51.090;17.038;2023-04-19T00:02:36;100605.56;;;12.49;64.63
39405;BME280;25121;51.090;17.038;2023-04-19T00:04:02;100602.88;;;12.49;64.40
39405;BME280;25121;51.090;17.038;2023-04-19T00:05:25;100601.22;;;12.48;64.39
39405;BME280;25121;51.090;17.038;2023-04-19T00:06:47;100596.84;;;12.47;64.45
39405;BME280;25121;51.090;17.038;2023-04-19T00:08:13;100601.22;;;12.48;64.47
39405;BME280;25121;51.090;17.038;2023-04-19T00:09:39;100600.38;;;12.48;64.61
39405;BME280;25121;51.090;17.038;2023-04-19T00:11:28;100585.75;;;12.42;64.45
39405;BME280;25121;51.090;17.038;2023-04-19T00:13:02;100601.56;;;12.45;64.41
39405;BME280;25121;51.090;17.038;2023-04-19T00:14:28;100589.44;;;12.41;64.42
39405;BME280;25121;51.090;17.038;2023-04-19T00:15:53;100595.50;;;12.43;64.40
39405;BME280;25121;51.090;17.038;2023-04-19T00:17:29;100582.75;;;12.37;64.31
39405;BME280;25121;51.090;17.038;2023-04-19T00:19:17;100589.13;;;12.36;64.40
39405;BME280;25121;51.090;17.038;2023-04-19T00:20:49;100585.59;;;12.36;64.26
39405;BME280;25121;51.090;17.038;2023-04-19T00:22:14;100578.56;;;12.35;64.18
39405;BME280;25121;51.090;17.038;2023-04-19T00:23:40;100592.84;;;12.35;64.19
39405;BME280;25121;51.090;17.038;2023-04-19T00:25:03;100581.56;;;12.32;64.21
39405;BME280;25121;51.090;17.038;2023-04-19T00:26:27;100586.13;;;12.31;64.35
39405;BME280;25121;51.090;17.038;2023-04-19T00:27:49;100586.97;;;12.32;64.26
39405;BME280;25121;51.090;17.038;2023-04-19T00:29:13;100583.13;;;12.26;64.49
39405;BME280;25121;51.090;17.038;2023-04-19T00:30:35;100570.66;;;12.25;64.35
39405;BME280;25121;51.090;17.038;2023-04-19T00:31:57;100582.28;;;12.25;64.49
39405;BME280;25121;51.090;17.038;2023-04-19T00:33:21;100584.13;;;12.25;64.55
39405;BME280;25121;51.090;17.038;2023-04-19T00:34:42;100573.88;;;12.20;64.55
39405;BME280;25121;51.090;17.038;2023-04-19T00:36:08;100569.31;;;12.21;64.80
39405;BME280;25121;51.090;17.038;2023-04-19T00:37:42;100567.50;;;12.13;64.97
39405;BME280;25121;51.090;17.038;2023-04-19T00:39:06;100574.03;;;12.19;64.66
39405;BME280;25121;51.090;17.038;2023-04-19T00:40:31;100566.00;;;12.11;64.45
39405;BME280;25121;51.090;17.038;2023-04-19T00:41:57;100573.72;;;12.14;64.68
39405;BME280;25121;51.090;17.038;2023-04-19T00:45:31;100549.88;;;12.02;64.94
39405;BME280;25121;51.090;17.038;2023-04-19T00:46:59;100560.47;;;12.04;64.64
39405;BME280;25121;51.090;17.038;2023-04-19T00:48:49;100563.81;;;12.06;64.70
39405;BME280;25121;51.090;17.038;2023-04-19T00:50:12;100555.59;;;11.99;64.81
39405;BME280;25121;51.090;17.038;2023-04-19T00:51:38;100557.28;;;12.00;64.70
39405;BME280;25121;51.090;17.038;2023-04-19T00:53:02;100553.25;;;11.96;64.78
39405;BME280;25121;51.090;17.038;2023-04-19T00:54:24;100560.97;;;11.99;64.71
39405;BME280;25121;51.090;17.038;2023-04-19T00:55:47;100566.19;;;12.01;64.62
39405;BME280;25121;51.090;17.038;2023-04-19T00:57:13;100552.75;;;11.93;64.57
39405;BME280;25121;51.090;17.038;2023-04-19T00:58:38;100558.47;;;11.98;63.97
39405;BME280;25121;51.090;17.038;2023-04-19T01:00:02;100556.59;;;11.98;64.36
39405;BME280;25121;51.090;17.038;2023-04-19T01:01:26;100548.69;;;11.97;64.08
39405;BME280;25121;51.090;17.038;2023-04-19T01:02:48;100557.59;;;11.97;63.88
39405;BME280;25121;51.090;17.038;2023-04-19T01:04:11;100556.78;;;11.97;63.71
39405;BME280;25121;51.090;17.038;2023-04-19T01:05:39;100545.69;;;11.92;63.58
39405;BME280;25121;51.090;17.038;2023-04-19T01:07:07;100546.72;;;11.91;63.21
39405;BME280;25121;51.090;17.038;2023-04-19T01:08:28;100544.16;;;11.89;63.39
39405;BME280;25121;51.090;17.038;2023-04-19T01:09:50;100540.13;;;11.85;63.37
39405;BME280;25121;51.090;17.038;2023-04-19T01:11:14;100543.81;;;11.84;63.20
39405;BME280;25121;51.090;17.038;2023-04-19T01:12:37;100539.63;;;11.81;62.91
39405;BME280;25121;51.090;17.038;2023-04-19T01:14:00;100537.44;;;11.77;62.90
39405;BME280;25121;51.090;17.038;2023-04-19T01:15:27;100533.25;;;11.74;63.01
39405;BME280;25121;51.090;17.038;2023-04-19T01:16:49;100535.94;;;11.74;63.04
39405;BME280;25121;51.090;17.038;2023-04-19T01:18:11;100536.13;;;11.73;62.94
39405;BME280;25121;51.090;17.038;2023-04-19T01:19:38;100528.56;;;11.68;62.66
39405;BME280;25121;51.090;17.038;2023-04-19T01:21:09;100532.91;;;11.69;62.80
39405;BME280;25121;51.090;17.038;2023-04-19T01:22:39;100531.56;;;11.65;62.77
39405;BME280;25121;51.090;17.038;2023-04-19T01:24:31;100529.22;;;11.62;62.62
39405;BME280;25121;51.090;17.038;2023-04-19T01:26:22;100527.91;;;11.58;62.89
39405;BME280;25121;51.090;17.038;2023-04-19T01:27:44;100527.03;;;11.57;62.76
39405;BME280;25121;51.090;17.038;2023-04-19T01:29:05;100535.47;;;11.54;62.80
39405;BME280;25121;51.090;17.038;2023-04-19T01:30:27;100523.88;;;11.54;62.59
39405;BME280;25121;51.090;17.038;2023-04-19T01:31:49;100524.91;;;11.53;62.56
39405;BME280;25121;51.090;17.038;2023-04-19T01:33:13;100527.75;;;11.51;62.50
39405;BME280;25121;51.090;17.038;2023-04-19T01:34:40;100519.84;;;11.50;62.40
39405;BME280;25121;51.090;17.038;2023-04-19T01:36:03;100519.16;;;11.48;62.32
39405;BME280;25121;51.090;17.038;2023-04-19T01:37:26;100521.84;;;11.48;62.20
39405;BME280;25121;51.090;17.038;2023-04-19T01:38:52;100525.72;;;11.45;62.09
39405;BME280;25121;51.090;17.038;2023-04-19T01:40:15;100519.84;;;11.41;61.87
39405;BME280;25121;51.090;17.038;2023-04-19T01:41:38;100510.09;;;11.40;61.81
39405;BME280;25121;51.090;17.038;2023-04-19T01:43:02;100522.53;;;11.41;61.81
39405;BME280;25121;51.090;17.038;2023-04-19T01:44:25;100517.31;;;11.40;61.50
39405;BME280;25121;51.090;17.038;2023-04-19T01:45:49;100516.69;;;11.38;61.55
39405;BME280;25121;51.090;17.038;2023-04-19T01:47:12;100517.66;;;11.37;61.31
39405;BME280;25121;51.090;17.038;2023-04-19T01:48:39;100512.47;;;11.35;61.20
39405;BME280;25121;51.090;17.038;2023-04-19T01:50:02;100517.00;;;11.35;61.37
39405;BME280;25121;51.090;17.038;2023-04-19T01:52:04;100487.09;;;11.21;61.11
39405;BME280;25121;51.090;17.038;2023-04-19T01:53:44;100502.38;;;11.29;61.08
39405;BME280;25121;51.090;17.038;2023-04-19T01:55:08;100507.75;;;11.29;60.73
39405;BME280;25121;51.090;17.038;2023-04-19T01:56:30;100506.09;;;11.28;60.35
39405;BME280;25121;51.090;17.038;2023-04-19T01:57:56;100496.00;;;11.22;60.02
39405;BME280;25121;51.090;17.038;2023-04-19T01:59:18;100496.19;;;11.20;59.85
39405;BME280;25121;51.090;17.038;2023-04-19T02:00:40;100494.31;;;11.21;59.60
39405;BME280;25121;51.090;17.038;2023-04-19T02:02:05;100493.50;;;11.20;58.64
39405;BME280;25121;51.090;17.038;2023-04-19T02:03:31;100498.00;;;11.20;58.53
39405;BME280;25121;51.090;17.038;2023-04-19T02:04:56;100491.13;;;11.17;58.20
39405;BME280;25121;51.090;17.038;2023-04-19T02:06:21;100493.13;;;11.15;57.85
39405;BME280;25121;51.090;17.038;2023-04-19T02:07:43;100488.94;;;11.13;57.54
39405;BME280;25121;51.090;17.038;2023-04-19T02:09:06;100490.97;;;11.11;56.86
39405;BME280;25121;51.090;17.038;2023-04-19T02:10:29;100496.66;;;11.08;56.95
39405;BME280;25121;51.090;17.038;2023-04-19T02:11:51;100487.75;;;11.07;56.59
39405;BME280;25121;51.090;17.038;2023-04-19T02:13:14;100494.16;;;11.06;56.68
39405;BME280;25121;51.090;17.038;2023-04-19T02:14:39;100494.50;;;11.03;56.58
39405;BME280;25121;51.090;17.038;2023-04-19T02:16:02;100481.38;;;11.00;56.67
39405;BME280;25121;51.090;17.038;2023-04-19T02:17:26;100495.50;;;11.02;56.70
39405;BME280;25121;51.090;17.038;2023-04-19T02:18:49;100489.78;;;10.97;56.68
39405;BME280;25121;51.090;17.038;2023-04-19T02:20:11;100485.91;;;10.99;56.61
39405;BME280;25121;51.090;17.038;2023-04-19T02:21:33;100495.16;;;10.97;57.08
39405;BME280;25121;51.090;17.038;2023-04-19T02:22:54;100483.25;;;10.91;57.12
39405;BME280;25121;51.090;17.038;2023-04-19T02:24:16;100489.94;;;10.95;57.04
39405;BME280;25121;51.090;17.038;2023-04-19T02:25:39;100492.81;;;10.94;56.97
39405;BME280;25121;51.090;17.038;2023-04-19T02:27:01;100478.22;;;10.88;57.08
39405;BME280;25121;51.090;17.038;2023-04-19T02:28:25;100481.72;;;10.89;57.01
39405;BME280;25121;51.090;17.038;2023-04-19T02:29:46;100477.53;;;10.86;56.76
39405;BME280;25121;51.090;17.038;2023-04-19T02:31:09;100497.84;;;10.89;56.66
39405;BME280;25121;51.090;17.038;2023-04-19T02:32:30;100483.91;;;10.85;56.45
39405;BME280;25121;51.090;17.038;2023-04-19T02:33:53;100491.66;;;10.88;56.34
39405;BME280;25121;51.090;17.038;2023-04-19T02:35:14;100494.16;;;10.90;56.09
39405;BME280;25121;51.090;17.038;2023-04-19T02:36:37;100486.09;;;10.90;56.07
39405;BME280;25121;51.090;17.038;2023-04-19T02:37:59;100499.53;;;10.90;55.81
39405;BME280;25121;51.090;17.038;2023-04-19T02:39:21;100490.97;;;10.86;55.65
39405;BME280;25121;51.090;17.038;2023-04-19T02:40:44;100492.31;;;10.82;55.84
39405;BME280;25121;51.090;17.038;2023-04-19T02:42:06;100484.25;;;10.82;55.72
39405;BME280;25121;51.090;17.038;2023-04-19T02:43:30;100486.09;;;10.82;55.24
39405;BME280;25121;51.090;17.038;2023-04-19T02:44:53;100481.06;;;10.78;55.06
39405;BME280;25121;51.090;17.038;2023-04-19T02:46:17;100477.00;;;10.74;54.85
39405;BME280;25121;51.090;17.038;2023-04-19T02:47:39;100480.53;;;10.75;54.72
39405;BME280;25121;51.090;17.038;2023-04-19T02:49:04;100477.00;;;10.74;54.44
39405;BME280;25121;51.090;17.038;2023-04-19T02:50:36;100473.63;;;10.72;54.19
39405;BME280;25121;51.090;17.038;2023-04-19T02:52:01;100480.88;;;10.72;54.22
39405;BME280;25121;51.090;17.038;2023-04-19T02:53:25;100473.16;;;10.69;54.09
39405;BME280;25121;51.090;17.038;2023-04-19T02:54:51;100477.00;;;10.66;54.10
39405;BME280;25121;51.090;17.038;2023-04-19T02:56:26;100464.22;;;10.60;54.01
39405;BME280;25121;51.090;17.038;2023-04-19T02:57:48;100470.28;;;10.62;53.87
39405;BME280;25121;51.090;17.038;2023-04-19T02:59:11;100467.59;;;10.62;54.20
39405;BME280;25121;51.090;17.038;2023-04-19T03:01:01;100453.31;;;10.53;54.05
39405;BME280;25121;51.090;17.038;2023-04-19T03:02:28;100466.22;;;10.58;54.32
39405;BME280;25121;51.090;17.038;2023-04-19T03:04:08;100449.94;;;10.51;54.58
39405;BME280;25121;51.090;17.038;2023-04-19T03:05:32;100457.19;;;10.59;54.61
39405;BME280;25121;51.090;17.038;2023-04-19T03:07:01;100459.88;;;10.59;54.97
39405;BME280;25121;51.090;17.038;2023-04-19T03:08:24;100458.84;;;10.60;54.25
39405;BME280;25121;51.090;17.038;2023-04-19T03:09:53;100461.53;;;10.60;54.10
39405;BME280;25121;51.090;17.038;2023-04-19T03:11:15;100456.16;;;10.60;54.16
39405;BME280;25121;51.090;17.038;2023-04-19T03:12:43;100449.63;;;10.54;53.62
39405;BME280;25121;51.090;17.038;2023-04-19T03:14:07;100458.84;;;10.60;53.61
39405;BME280;25121;51.090;17.038;2023-04-19T03:15:33;100469.25;;;10.63;53.56
39405;BME280;25121;51.090;17.038;2023-04-19T03:16:56;100462.91;;;10.64;53.45
39405;BME280;25121;51.090;17.038;2023-04-19T03:18:18;100455.66;;;10.65;53.36
39405;BME280;25121;51.090;17.038;2023-04-19T03:19:40;100456.50;;;10.65;53.09
39405;BME280;25121;51.090;17.038;2023-04-19T03:21:03;100453.81;;;10.65;52.88
39405;BME280;25121;51.090;17.038;2023-04-19T03:22:45;100448.63;;;10.64;52.87
39405;BME280;25121;51.090;17.038;2023-04-19T03:24:08;100441.53;;;10.63;52.63
39405;BME280;25121;51.090;17.038;2023-04-19T03:28:00;100448.28;;;10.59;52.50
39405;BME280;25121;51.090;17.038;2023-04-19T03:29:46;100443.22;;;10.55;52.48
39405;BME280;25121;51.090;17.038;2023-04-19T03:31:08;100446.25;;;10.52;52.37
39405;BME280;25121;51.090;17.038;2023-04-19T03:32:32;100435.16;;;10.47;52.08
39405;BME280;25121;51.090;17.038;2023-04-19T03:33:54;100434.31;;;10.47;52.05
39405;BME280;25121;51.090;17.038;2023-04-19T03:35:21;100437.84;;;10.47;51.86
39405;BME280;25121;51.090;17.038;2023-04-19T03:36:48;100439.03;;;10.45;52.02
39405;BME280;25121;51.090;17.038;2023-04-19T03:38:11;100439.16;;;10.43;51.89
39405;BME280;25121;51.090;17.038;2023-04-19T03:39:32;100435.84;;;10.41;51.93
39405;BME280;25121;51.090;17.038;2023-04-19T03:41:02;100437.66;;;10.41;52.04
39405;BME280;25121;51.090;17.038;2023-04-19T03:42:27;100427.09;;;10.39;52.09
39405;BME280;25121;51.090;17.038;2023-04-19T03:44:18;100442.53;;;10.37;52.19
39405;BME280;25121;51.090;17.038;2023-04-19T03:45:41;100430.63;;;10.31;52.26
39405;BME280;25121;51.090;17.038;2023-04-19T03:47:06;100443.19;;;10.31;52.54
39405;BME280;25121;51.090;17.038;2023-04-19T03:48:34;100437.66;;;10.32;52.55
39405;BME280;25121;51.090;17.038;2023-04-19T03:49:56;100446.53;;;10.33;52.60
39405;BME280;25121;51.090;17.038;2023-04-19T03:51:20;100440.50;;;10.31;52.51
39405;BME280;25121;51.090;17.038;2023-04-19T03:52:41;100425.03;;;10.25;52.45
39405;BME280;25121;51.090;17.038;2023-04-19T03:54:05;100438.81;;;10.30;52.66
39405;BME280;25121;51.090;17.038;2023-04-19T03:55:28;100434.09;;;10.24;52.65
39405;BME280;25121;51.090;17.038;2023-04-19T03:56:55;100446.72;;;10.31;52.71
39405;BME280;25121;51.090;17.038;2023-04-19T03:58:17;100445.03;;;10.30;52.61
39405;BME280;25121;51.090;17.038;2023-04-19T03:59:50;100443.50;;;10.28;52.56
39405;BME280;25121;51.090;17.038;2023-04-19T04:03:47;100438.94;;;10.20;52.46
39405;BME280;25121;51.090;17.038;2023-04-19T04:05:14;100435.91;;;10.15;52.39
39405;BME280;25121;51.090;17.038;2023-04-19T04:06:37;100426.19;;;10.14;52.30
39405;BME280;25121;51.090;17.038;2023-04-19T04:08:11;100435.72;;;10.08;52.20
39405;BME280;25121;51.090;17.038;2023-04-19T04:09:41;100458.06;;;10.17;51.86
39405;BME280;25121;51.090;17.038;2023-04-19T04:11:10;100434.88;;;10.08;52.03
39405;BME280;25121;51.090;17.038;2023-04-19T04:12:36;100439.25;;;10.09;51.94
39405;BME280;25121;51.090;17.038;2023-04-19T04:14:03;100436.72;;;10.07;51.80
39405;BME280;25121;51.090;17.038;2023-04-19T04:15:40;100454.50;;;10.08;52.05
39405;BME280;25121;51.090;17.038;2023-04-19T04:17:32;100437.00;;;9.96;51.96
39405;BME280;25121;51.090;17.038;2023-04-19T04:19:08;100440.56;;;9.97;52.06
39405;BME280;25121;51.090;17.038;2023-04-19T04:20:54;100454.97;;;9.96;52.65
39405;BME280;25121;51.090;17.038;2023-04-19T04:22:47;100457.16;;;9.92;53.56
39405;BME280;25121;51.090;17.038;2023-04-19T04:24:23;100458.94;;;9.83;54.33
39405;BME280;25121;51.090;17.038;2023-04-19T04:26:04;100458.72;;;9.68;55.27
39405;BME280;25121;51.090;17.038;2023-04-19T04:28:06;100471.88;;;9.54;56.24
39405;BME280;25121;51.090;17.038;2023-04-19T04:29:28;100460.53;;;9.34;57.43
39405;BME280;25121;51.090;17.038;2023-04-19T04:31:02;100468.41;;;9.27;58.81
39405;BME280;25121;51.090;17.038;2023-04-19T04:32:28;100465.97;;;9.16;59.06
39405;BME280;25121;51.090;17.038;2023-04-19T04:33:53;100461.69;;;9.05;59.88
39405;BME280;25121;51.090;17.038;2023-04-19T04:35:16;100465.16;;;8.97;60.29
39405;BME280;25121;51.090;17.038;2023-04-19T04:36:49;100462.72;;;8.86;60.58
39405;BME280;25121;51.090;17.038;2023-04-19T04:38:13;100470.00;;;8.76;61.26
39405;BME280;25121;51.090;17.038;2023-04-19T04:39:45;100466.94;;;8.71;61.96
39405;BME280;25121;51.090;17.038;2023-04-19T04:41:08;100456.16;;;8.62;61.97
39405;BME280;25121;51.090;17.038;2023-04-19T04:42:30;100471.88;;;8.57;62.04
39405;BME280;25121;51.090;17.038;2023-04-19T04:43:53;100463.44;;;8.52;62.46
39405;BME280;25121;51.090;17.038;2023-04-19T04:45:32;100467.56;;;8.47;62.73
39405;BME280;25121;51.090;17.038;2023-04-19T04:46:59;100454.06;;;8.38;62.80
39405;BME280;25121;51.090;17.038;2023-04-19T04:48:24;100457.19;;;8.34;63.01
39405;BME280;25121;51.090;17.038;2023-04-19T04:49:54;100462.84;;;8.31;63.50
39405;BME280;25121;51.090;17.038;2023-04-19T04:51:40;100439.66;;;8.22;63.77
39405;BME280;25121;51.090;17.038;2023-04-19T04:53:24;100447.84;;;8.20;64.44
39405;BME280;25121;51.090;17.038;2023-04-19T04:54:59;100451.28;;;8.12;64.89
39405;BME280;25121;51.090;17.038;2023-04-19T04:56:44;100461.31;;;8.10;65.38
39405;BME280;25121;51.090;17.038;2023-04-19T04:58:10;100457.75;;;8.10;65.92
39405;BME280;25121;51.090;17.038;2023-04-19T05:00:32;100445.81;;;8.04;66.24
39405;BME280;25121;51.090;17.038;2023-04-19T05:02:10;100459.06;;;8.06;66.57
39405;BME280;25121;51.090;17.038;2023-04-19T05:03:35;100457.38;;;8.05;66.68
39405;BME280;25121;51.090;17.038;2023-04-19T05:05:09;100459.22;;;8.04;67.14
39405;BME280;25121;51.090;17.038;2023-04-19T05:06:36;100459.78;;;8.08;67.51
39405;BME280;25121;51.090;17.038;2023-04-19T05:08:05;100456.78;;;8.11;67.74
39405;BME280;25121;51.090;17.038;2023-04-19T05:09:27;100441.88;;;8.08;67.68
39405;BME280;25121;51.090;17.038;2023-04-19T05:13:01;100452.13;;;8.13;67.91
39405;BME280;25121;51.090;17.038;2023-04-19T05:14:40;100453.28;;;8.10;67.65
39405;BME280;25121;51.090;17.038;2023-04-19T05:16:05;100439.59;;;8.13;67.40
39405;BME280;25121;51.090;17.038;2023-04-19T05:18:01;100440.72;;;8.11;67.74
39405;BME280;25121;51.090;17.038;2023-04-19T05:19:28;100466.44;;;8.22;67.63
39405;BME280;25121;51.090;17.038;2023-04-19T05:21:01;100453.44;;;8.27;67.79
39405;BME280;25121;51.090;17.038;2023-04-19T05:22:27;100454.44;;;8.26;67.84
39405;BME280;25121;51.090;17.038;2023-04-19T05:23:52;100444.56;;;8.26;67.79
39405;BME280;25121;51.090;17.038;2023-04-19T05:25:30;100450.31;;;8.31;67.71
39405;BME280;25121;51.090;17.038;2023-04-19T05:26:58;100452.66;;;8.34;67.64
39405;BME280;25121;51.090;17.038;2023-04-19T05:28:54;100447.94;;;8.28;67.73
39405;BME280;25121;51.090;17.038;2023-04-19T05:30:49;100445.63;;;8.33;67.78
39405;BME280;25121;51.090;17.038;2023-04-19T05:32:32;100434.69;;;8.27;67.36
39405;BME280;25121;51.090;17.038;2023-04-19T05:34:23;100442.28;;;8.31;66.62
39405;BME280;25121;51.090;17.038;2023-04-19T05:36:12;100449.53;;;8.39;66.63
39405;BME280;25121;51.090;17.038;2023-04-19T05:37:56;100440.81;;;8.37;66.19
39405;BME280;25121;51.090;17.038;2023-04-19T05:39:18;100424.75;;;8.37;65.85
39405;BME280;25121;51.090;17.038;2023-04-19T05:40:52;100434.25;;;8.49;65.51
39405;BME280;25121;51.090;17.038;2023-04-19T05:42:22;100424.41;;;8.50;65.00
39405;BME280;25121;51.090;17.038;2023-04-19T05:43:47;100424.09;;;8.53;64.86
39405;BME280;25121;51.090;17.038;2023-04-19T05:45:15;100434.28;;;8.67;64.83
39405;BME280;25121;51.090;17.038;2023-04-19T05:46:42;100435.81;;;8.70;64.21
39405;BME280;25121;51.090;17.038;2023-04-19T05:48:08;100433.41;;;8.67;64.05
39405;BME280;25121;51.090;17.038;2023-04-19T05:50:11;100418.34;;;8.66;63.69
39405;BME280;25121;51.090;17.038;2023-04-19T05:51:45;100434.16;;;8.77;63.25
39405;BME280;25121;51.090;17.038;2023-04-19T05:53:23;100434.84;;;8.79;63.05
39405;BME280;25121;51.090;17.038;2023-04-19T05:54:51;100420.41;;;8.72;62.86
39405;BME280;25121;51.090;17.038;2023-04-19T05:56:22;100415.72;;;8.74;62.81
39405;BME280;25121;51.090;17.038;2023-04-19T05:57:44;100427.38;;;8.82;62.86
39405;BME280;25121;51.090;17.038;2023-04-19T05:59:08;100436.97;;;8.93;62.77
39405;BME280;25121;51.090;17.038;2023-04-19T06:00:37;100424.28;;;8.95;62.72
39405;BME280;25121;51.090;17.038;2023-04-19T06:02:15;100429.84;;;9.02;62.33
39405;BME280;25121;51.090;17.038;2023-04-19T06:03:44;100425.06;;;9.14;62.53
39405;BME280;25121;51.090;17.038;2023-04-19T06:05:38;100417.69;;;9.16;62.22
39405;BME280;25121;51.090;17.038;2023-04-19T06:07:05;100433.91;;;9.32;61.50
39405;BME280;25121;51.090;17.038;2023-04-19T06:08:51;100432.63;;;9.44;61.39
39405;BME280;25121;51.090;17.038;2023-04-19T06:10:26;100441.22;;;9.56;61.33
39405;BME280;25121;51.090;17.038;2023-04-19T06:12:14;100432.75;;;9.69;60.95
39405;BME280;25121;51.090;17.038;2023-04-19T06:14:16;100419.16;;;9.70;60.82
39405;BME280;25121;51.090;17.038;2023-04-19T06:23:58;100431.75;;;9.78;60.42
39405;BME280;25121;51.090;17.038;2023-04-19T06:35:57;100427.28;;;10.70;58.13
39405;BME280;25121;51.090;17.038;2023-04-19T06:37:41;100427.28;;;10.87;58.10
39405;BME280;25121;51.090;17.038;2023-04-19T06:42:20;100428.84;;;11.53;56.69
39405;BME280;25121;51.090;17.038;2023-04-19T06:43:46;100418.09;;;11.93;56.08
39405;BME280;25121;51.090;17.038;2023-04-19T06:45:24;100434.09;;;12.17;55.22
39405;BME280;25121;51.090;17.038;2023-04-19T06:47:45;100434.09;;;12.48;54.38
39405;BME280;25121;51.090;17.038;2023-04-19T06:49:12;100416.09;;;13.02;53.11
39405;BME280;25121;51.090;17.038;2023-04-19T06:50:38;100429.28;;;13.20;52.80
39405;BME280;25121;51.090;17.038;2023-04-19T06:52:06;100425.72;;;13.04;52.69
39405;BME280;25121;51.090;17.038;2023-04-19T06:53:29;100430.81;;;12.99;52.88
39405;BME280;25121;51.090;17.038;2023-04-19T06:54:50;100423.19;;;13.03;52.30
39405;BME280;25121;51.090;17.038;2023-04-19T06:56:41;100427.56;;;13.27;51.72
39405;BME280;25121;51.090;17.038;2023-04-19T06:58:07;100431.38;;;13.47;51.48
39405;BME280;25121;51.090;17.038;2023-04-19T07:00:04;100425.75;;;13.78;50.90
39405;BME280;25121;51.090;17.038;2023-04-19T07:08:30;100428.13;;;14.39;49.87
39405;BME280;25121;51.090;17.038;2023-04-19T07:10:12;100416.59;;;14.67;49.21
39405;BME280;25121;51.090;17.038;2023-04-19T07:12:05;100428.31;;;15.02;48.60
39405;BME280;25121;51.090;17.038;2023-04-19T07:14:26;100418.06;;;14.91;48.70
39405;BME280;25121;51.090;17.038;2023-04-19T07:16:25;100425.09;;;15.14;48.12
39405;BME280;25121;51.090;17.038;2023-04-19T07:18:31;100424.19;;;15.35;47.94
39405;BME280;25121;51.090;17.038;2023-04-19T07:20:37;100427.75;;;15.70;47.56
39405;BME280;25121;51.090;17.038;2023-04-19T07:22:16;100418.41;;;15.73;47.13
39405;BME280;25121;51.090;17.038;2023-04-19T07:24:10;100437.38;;;15.79;47.12
39405;BME280;25121;51.090;17.038;2023-04-19T07:25:32;100415.75;;;15.86;46.18
39405;BME280;25121;51.090;17.038;2023-04-19T07:27:06;100425.13;;;15.83;45.78
39405;BME280;25121;51.090;17.038;2023-04-19T07:28:47;100410.00;;;15.67;45.87
39405;BME280;25121;51.090;17.038;2023-04-19T07:30:44;100414.84;;;15.72;45.67
39405;BME280;25121;51.090;17.038;2023-04-19T07:32:07;100416.84;;;15.98;45.29
39405;BME280;25121;51.090;17.038;2023-04-19T07:36:02;100414.44;;;16.36;45.55
39405;BME280;25121;51.090;17.038;2023-04-19T07:37:25;100407.38;;;16.55;45.11
39405;BME280;25121;51.090;17.038;2023-04-19T07:38:47;100400.13;;;17.09;44.03
39405;BME280;25121;51.090;17.038;2023-04-19T07:40:17;100417.38;;;17.41;43.10
39405;BME280;25121;51.090;17.038;2023-04-19T07:41:54;100419.25;;;17.54;42.76
39405;BME280;25121;51.090;17.038;2023-04-19T07:43:35;100409.03;;;17.36;43.77
39405;BME280;25121;51.090;17.038;2023-04-19T07:45:28;100417.63;;;17.33;43.89
39405;BME280;25121;51.090;17.038;2023-04-19T07:47:09;100403.81;;;17.48;43.22
39405;BME280;25121;51.090;17.038;2023-04-19T08:19:24;100434.56;;;32.11;28.39
39405;BME280;25121;51.090;17.038;2023-04-19T08:20:54;100422.50;;;32.16;26.38
39405;BME280;25121;51.090;17.038;2023-04-19T08:23:08;100403.13;;;33.06;26.25
39405;BME280;25121;51.090;17.038;2023-04-19T08:30:09;100409.25;;;28.96;29.89
39405;BME280;25121;51.090;17.038;2023-04-19T08:41:14;100428.63;;;21.48;37.11
39405;BME280;25121;51.090;17.038;2023-04-19T08:45:25;100415.63;;;19.39;38.62
39405;BME280;25121;51.090;17.038;2023-04-19T08:47:03;100421.41;;;18.81;38.90
39405;BME280;25121;51.090;17.038;2023-04-19T08:48:59;100416.56;;;18.06;39.51
39405;BME280;25121;51.090;17.038;2023-04-19T08:50:38;100417.38;;;17.48;40.05
39405;BME280;25121;51.090;17.038;2023-04-19T08:52:52;100423.72;;;16.82;41.06
39405;BME280;25121;51.090;17.038;2023-04-19T08:58:10;100421.16;;;15.51;43.09
39405;BME280;25121;51.090;17.038;2023-04-19T08:59:52;100430.06;;;15.38;43.48
39405;BME280;25121;51.090;17.038;2023-04-19T09:01:59;100418.28;;;15.24;43.67
39405;BME280;25121;51.090;17.038;2023-04-19T09:03:24;100422.28;;;15.28;43.44
39405;BME280;25121;51.090;17.038;2023-04-19T09:05:00;100402.63;;;15.20;43.21
39405;BME280;25121;51.090;17.038;2023-04-19T09:06:25;100420.66;;;15.34;42.75
39405;BME280;25121;51.090;17.038;2023-04-19T09:07:52;100420.28;;;15.44;42.91
39405;BME280;25121;51.090;17.038;2023-04-19T09:09:18;100409.28;;;15.45;42.98
39405;BME280;25121;51.090;17.038;2023-04-19T09:11:17;100405.81;;;15.30;43.44
39405;BME280;25121;51.090;17.038;2023-04-19T09:12:59;100420.22;;;15.31;43.35
39405;BME280;25121;51.090;17.038;2023-04-19T09:37:59;100390.13;;;15.54;43.44
39405;BME280;25121;51.090;17.038;2023-04-19T09:39:49;100398.69;;;15.50;43.48
39405;BME280;25121;51.090;17.038;2023-04-19T09:41:11;100400.28;;;15.45;43.09
39405;BME280;25121;51.090;17.038;2023-04-19T09:42:48;100394.81;;;15.32;43.20
39405;BME280;25121;51.090;17.038;2023-04-19T09:47:40;100399.94;;;14.92;44.26
39405;BME280;25121;51.090;17.038;2023-04-19T09:49:23;100399.09;;;14.91;44.09
39405;BME280;25121;51.090;17.038;2023-04-19T09:51:13;100391.66;;;15.00;44.26
39405;BME280;25121;51.090;17.038;2023-04-19T09:55:03;100401.44;;;15.29;43.85